Time;durP1;ratioP1;P1;durP2;ratioP2;P2;SDS_P1;SDS_P2;PMS_P1;PMS_P2;Temp;Humidity;BMP_temperature;BMP_pressure;BME280_temperature;BME280_humidity;BME280_pressure;Samples;Min_cycle;Max_cycle;Signal;HPM_P1;HPM_P2
2024/01/11 00:01:04;;;;;;;58.42;31.88;;;-3.80;87.50;;;;;;5034476;28;20064;-94
2024/01/11 00:03:30;;;;;;;54.70;28.10;;;-3.80;87.60;;;;;;5048720;28;20021;-92
2024/01/11 00:05:55;;;;;;;58.38;28.63;;;-3.90;87.80;;;;;;5050552;28;20032;-92
2024/01/11 00:08:21;;;;;;;59.17;28.77;;;-3.90;88.00;;;;;;5051029;28;20093;-93
2024/01/11 00:10:47;;;;;;;51.05;29.27;;;-3.80;88.00;;;;;;5051863;28;20030;-93
2024/01/11 00:13:13;;;;;;;57.75;30.40;;;-3.90;88.10;;;;;;5035960;28;20025;-91
2024/01/11 00:15:41;;;;;;;64.22;28.65;;;-3.90;88.30;;;;;;5030189;28;20026;-92
2024/01/11 00:18:07;;;;;;;56.53;27.42;;;-3.90;88.50;;;;;;5030818;28;20018;-93
2024/01/11 00:20:32;;;;;;;60.85;29.20;;;-4.00;88.70;;;;;;5033060;28;20465;-91
2024/01/11 00:22:58;;;;;;;53.90;25.27;;;-4.00;88.80;;;;;;5017015;28;20392;-94
2024/01/11 00:25:24;;;;;;;58.80;27.60;;;-4.00;89.00;;;;;;5039367;28;20064;-93
2024/01/11 00:27:50;;;;;;;58.08;28.50;;;-4.00;89.80;;;;;;5017554;28;20029;-93
2024/01/11 00:30:16;;;;;;;57.13;28.10;;;-4.00;89.10;;;;;;5042940;28;20022;-93
2024/01/11 00:32:41;;;;;;;59.90;28.95;;;-4.00;89.20;;;;;;5034333;28;20036;-93
2024/01/11 00:35:07;;;;;;;58.92;29.42;;;-4.00;89.40;;;;;;5042037;28;20026;-94
2024/01/11 00:37:33;;;;;;;54.78;30.23;;;-4.10;89.70;;;;;;5016419;28;20036;-93
2024/01/11 00:39:59;;;;;;;61.85;28.83;;;-4.10;90.00;;;;;;5010637;28;20114;-92
2024/01/11 00:42:24;;;;;;;65.00;31.02;;;-4.10;90.10;;;;;;5032513;28;20024;-93
2024/01/11 00:44:50;;;;;;;55.70;27.05;;;-4.10;90.40;;;;;;5034147;28;20033;-96
2024/01/11 00:47:16;;;;;;;56.72;29.33;;;-4.10;90.40;;;;;;5033010;28;20030;-92
2024/01/11 00:49:42;;;;;;;56.00;27.10;;;-4.10;90.50;;;;;;5017625;28;20090;-95
2024/01/11 00:52:09;;;;;;;68.45;29.98;;;-4.10;90.90;;;;;;5029402;28;20034;-92
2024/01/11 00:54:35;;;;;;;63.10;27.88;;;-4.20;91.00;;;;;;5032038;28;20022;-92
2024/01/11 00:57:01;;;;;;;52.30;27.15;;;-4.20;91.40;;;;;;5036426;28;20021;-93
2024/01/11 00:59:27;;;;;;;54.08;28.05;;;-4.20;91.50;;;;;;5034894;28;20043;-93
2024/01/11 01:01:53;;;;;;;59.35;27.27;;;-4.20;91.70;;;;;;5032027;28;20025;-91
2024/01/11 01:04:18;;;;;;;66.93;31.15;;;-4.20;91.70;;;;;;5032362;28;20049;-92
2024/01/11 01:09:28;;;;;;;58.45;27.52;;;-4.20;91.80;;;;;;5029555;28;20040;-93
2024/01/11 01:11:54;;;;;;;59.60;30.10;;;-4.20;92.10;;;;;;5031863;28;20030;-91
2024/01/11 01:14:20;;;;;;;68.95;31.50;;;-4.20;91.80;;;;;;5033446;28;20026;-92
2024/01/11 01:16:45;;;;;;;54.45;30.70;;;-4.20;91.90;;;;;;5015956;28;20026;-92
2024/01/11 01:19:11;;;;;;;55.30;30.02;;;-4.20;91.90;;;;;;5031509;28;20027;-93
2024/01/11 01:21:37;;;;;;;63.40;28.95;;;-4.20;91.90;;;;;;5014736;28;20029;-92
2024/01/11 01:24:03;;;;;;;68.03;30.58;;;-4.20;91.90;;;;;;5050875;28;20029;-94
2024/01/11 01:26:28;;;;;;;57.72;31.67;;;-4.20;92.00;;;;;;5034493;28;20022;-93
2024/01/11 01:28:54;;;;;;;59.17;28.25;;;-4.20;92.00;;;;;;5050091;28;20025;-92
2024/01/11 01:31:21;;;;;;;51.88;27.95;;;-4.20;92.00;;;;;;5042657;28;20033;-92
2024/01/11 01:33:46;;;;;;;60.13;28.17;;;-4.20;92.10;;;;;;5032468;28;20029;-93
2024/01/11 01:36:12;;;;;;;52.90;26.25;;;-4.20;92.10;;;;;;5043763;28;20392;-91
2024/01/11 01:38:38;;;;;;;57.35;26.48;;;-4.20;92.20;;;;;;5019661;28;20061;-93
2024/01/11 01:41:03;;;;;;;57.65;30.50;;;-4.20;92.10;;;;;;5021634;28;20006;-95
2024/01/11 01:43:29;;;;;;;67.22;29.15;;;-4.20;92.20;;;;;;5042364;28;20021;-95
2024/01/11 01:45:55;;;;;;;58.97;30.65;;;-4.20;92.10;;;;;;5020929;28;20022;-95
2024/01/11 01:48:21;;;;;;;60.53;30.85;;;-4.20;92.20;;;;;;5015413;28;20038;-93
2024/01/11 01:50:50;;;;;;;56.55;26.95;;;-4.20;92.30;;;;;;5013614;28;20052;-94
2024/01/11 01:53:17;;;;;;;;;;;-4.20;92.30;;;;;;5015655;28;20032;-93
2024/01/11 01:55:42;;;;;;;60.88;26.70;;;-4.30;92.10;;;;;;5022850;28;19905;-91
2024/01/11 01:58:08;;;;;;;57.00;27.60;;;-4.30;92.80;;;;;;5039883;28;20060;-93
2024/01/11 02:00:34;;;;;;;54.10;30.75;;;-4.30;92.30;;;;;;5030136;28;20026;-92
2024/01/11 02:03:00;;;;;;;59.85;29.73;;;-4.30;92.30;;;;;;5029644;28;20036;-92
2024/01/11 02:05:26;;;;;;;64.38;30.33;;;-4.30;92.50;;;;;;5028481;28;20099;-94
2024/01/11 02:07:52;;;;;;;58.78;28.20;;;-4.30;92.40;;;;;;5011003;28;20034;-93
2024/01/11 02:10:19;;;;;;;62.35;29.90;;;-4.30;92.20;;;;;;5010761;28;20026;-93
2024/01/11 02:12:45;;;;;;;60.97;30.48;;;-4.30;92.00;;;;;;5009966;28;20036;-92
2024/01/11 02:15:10;;;;;;;61.20;29.92;;;-4.30;91.90;;;;;;5027742;28;20029;-92
2024/01/11 02:17:39;;;;;;;59.75;27.02;;;-4.30;91.90;;;;;;5036106;28;20025;-92
2024/01/11 02:20:08;;;;;;;61.30;30.55;;;-4.30;91.90;;;;;;5041167;28;20028;-91
2024/01/11 02:22:40;;;;;;;69.72;31.55;;;-4.30;92.00;;;;;;5028240;28;20054;-93
2024/01/11 02:25:06;;;;;;;60.25;27.92;;;-4.30;92.10;;;;;;5022856;28;20021;-92
2024/01/11 02:27:50;;;;;;;63.63;28.10;;;-4.30;92.10;;;;;;5047417;28;20097;-94
2024/01/11 02:30:17;;;;;;;60.63;28.27;;;-4.40;92.00;;;;;;5034872;28;20033;-93
2024/01/11 02:32:46;;;;;;;69.00;30.88;;;-4.40;92.20;;;;;;5038538;28;20084;-92
2024/01/11 02:35:12;;;;;;;;;;;-4.40;92.30;;;;;;5046585;28;20033;-92
2024/01/11 02:37:39;;;;;;;53.30;26.00;;;-4.40;92.60;;;;;;5028325;28;19999;-92
2024/01/11 02:40:07;;;;;;;57.45;24.52;;;-4.40;92.80;;;;;;5022288;28;20181;-92
2024/01/11 02:42:33;;;;;;;65.55;29.45;;;-4.40;92.80;;;;;;5027888;28;20026;-92
2024/01/11 02:44:59;;;;;;;57.75;28.63;;;-4.40;93.00;;;;;;5033047;28;20088;-92
2024/01/11 02:47:24;;;;;;;61.58;27.67;;;-4.50;93.20;;;;;;5009767;28;20485;-92
2024/01/11 02:49:54;;;;;;;58.15;26.90;;;-4.50;93.20;;;;;;5009361;28;20022;-93
2024/01/11 02:52:19;;;;;;;55.65;28.05;;;-4.50;93.30;;;;;;5009159;28;20026;-92
2024/01/11 02:54:45;;;;;;;51.90;28.27;;;-4.50;93.40;;;;;;5009048;28;20441;-93
2024/01/11 02:57:11;;;;;;;46.42;25.95;;;-4.50;93.40;;;;;;5017673;28;20053;-91
2024/01/11 02:59:36;;;;;;;56.28;29.70;;;-4.50;93.70;;;;;;5026598;28;20026;-94
2024/01/11 03:02:02;;;;;;;66.90;30.88;;;-4.60;93.60;;;;;;5026565;28;20037;-93
2024/01/11 03:04:28;;;;;;;59.08;28.83;;;-4.60;93.80;;;;;;5042480;28;20035;-93
2024/01/11 03:06:54;;;;;;;59.13;26.20;;;-4.60;94.00;;;;;;5045764;28;20085;-93
2024/01/11 03:09:19;;;;;;;51.45;29.83;;;-4.60;94.30;;;;;;5045098;28;20052;-94
2024/01/11 03:11:45;;;;;;;59.63;32.53;;;-4.60;94.50;;;;;;5008907;28;20056;-94
2024/01/11 03:14:11;;;;;;;59.38;29.60;;;-4.60;94.50;;;;;;5012781;28;20030;-93
2024/01/11 03:16:37;;;;;;;56.88;29.15;;;-4.70;94.70;;;;;;5008267;28;20033;-92
2024/01/11 03:19:03;;;;;;;61.08;29.98;;;-4.70;94.90;;;;;;5025558;28;20025;-92
2024/01/11 03:21:28;;;;;;;67.43;32.88;;;-4.70;95.10;;;;;;5013713;28;20025;-93
2024/01/11 03:23:54;;;;;;;56.83;29.23;;;-4.80;95.20;;;;;;5046228;28;20010;-92
2024/01/11 03:26:20;;;;;;;58.08;29.20;;;-4.80;95.50;;;;;;5033594;28;20029;-91
2024/01/11 03:28:45;;;;;;;54.67;28.92;;;-4.70;95.70;;;;;;5025254;28;20037;-93
2024/01/11 03:31:11;;;;;;;53.30;26.13;;;-4.70;95.80;;;;;;5025369;28;20034;-92
2024/01/11 03:33:37;;;;;;;55.50;30.25;;;-4.80;95.70;;;;;;5029986;28;20049;-92
2024/01/11 03:36:12;;;;;;;68.88;31.08;;;-4.80;95.70;;;;;;5040410;28;20021;-92
2024/01/11 03:38:38;;;;;;;;;;;-4.80;95.70;;;;;;5016901;28;20054;-94
2024/01/11 03:41:10;;;;;;;56.55;26.27;;;-4.80;95.70;;;;;;5020293;28;19906;-92
2024/01/11 03:43:36;;;;;;;51.63;28.85;;;-4.80;95.80;;;;;;5036852;28;20033;-93
2024/01/11 03:46:05;;;;;;;63.38;30.67;;;-4.80;96.00;;;;;;5026784;28;20026;-93
2024/01/11 03:48:31;;;;;;;58.95;28.88;;;-4.80;96.20;;;;;;5024046;28;20026;-93
2024/01/11 03:50:59;;;;;;;57.70;27.38;;;-4.90;96.30;;;;;;5028394;28;20045;-93
2024/01/11 03:53:25;;;;;;;66.40;29.52;;;-4.80;96.30;;;;;;5010999;28;20026;-93
2024/01/11 03:55:51;;;;;;;61.75;28.60;;;-4.90;96.40;;;;;;5034712;28;20024;-93
2024/01/11 03:58:16;;;;;;;52.40;29.48;;;-4.90;96.50;;;;;;5049224;28;20018;-93
2024/01/11 04:00:48;;;;;;;59.03;29.98;;;-4.90;97.30;;;;;;5011558;28;20030;-93
2024/01/11 04:03:17;;;;;;;53.88;28.27;;;-4.90;96.60;;;;;;5028508;28;20049;-94
2024/01/11 04:05:43;;;;;;;57.30;29.40;;;-4.90;96.70;;;;;;5027102;28;20014;-92
2024/01/11 04:08:13;;;;;;;63.08;30.10;;;-4.90;96.70;;;;;;5033545;28;20029;-93
2024/01/11 04:10:39;;;;;;;56.22;27.92;;;-4.90;96.90;;;;;;5011940;28;20033;-92
2024/01/11 04:13:07;;;;;;;59.78;28.40;;;-4.90;96.90;;;;;;5028196;28;20026;-90
2024/01/11 04:15:33;;;;;;;58.10;27.85;;;-5.00;96.90;;;;;;5021390;28;20109;-92
2024/01/11 04:17:58;;;;;;;56.20;29.30;;;-5.00;97.00;;;;;;5018774;28;20037;-94
2024/01/11 04:20:29;;;;;;;59.95;27.85;;;-5.00;97.10;;;;;;5012651;28;20022;-91
2024/01/11 04:22:55;;;;;;;60.80;28.00;;;-5.00;97.20;;;;;;5030318;28;20084;-91
2024/01/11 04:25:21;;;;;;;60.42;27.00;;;-5.00;97.30;;;;;;5012461;28;20026;-92
2024/01/11 04:27:54;;;;;;;52.47;25.63;;;-5.00;97.20;;;;;;5028663;28;20034;-93
2024/01/11 04:30:19;;;;;;;61.05;29.30;;;-5.00;97.20;;;;;;5027020;28;20512;-93
2024/01/11 04:32:48;;;;;;;59.45;31.13;;;-5.00;97.10;;;;;;4999685;28;20050;-92
2024/01/11 04:35:15;;;;;;;62.70;30.73;;;-5.00;97.10;;;;;;5029513;28;20030;-90
2024/01/11 04:37:43;;;;;;;59.08;27.13;;;-4.90;97.10;;;;;;5043554;28;20029;-93
2024/01/11 04:40:09;;;;;;;55.80;29.23;;;-5.00;96.80;;;;;;5023989;28;20017;-94
2024/01/11 04:42:35;;;;;;;61.05;28.02;;;-5.00;96.80;;;;;;5009714;28;20022;-92
2024/01/11 04:45:00;;;;;;;58.42;28.98;;;-5.00;96.90;;;;;;5018888;28;20048;-92
2024/01/11 04:47:26;;;;;;;66.65;28.80;;;-5.00;96.90;;;;;;5009800;28;20461;-93
2024/01/11 04:49:52;;;;;;;53.03;28.40;;;-5.00;96.80;;;;;;5031111;28;20049;-92
2024/01/11 04:52:17;;;;;;;60.17;30.83;;;-5.00;97.00;;;;;;5031341;28;20033;-92
2024/01/11 04:54:43;;;;;;;60.35;27.90;;;-5.00;96.90;;;;;;5053603;28;20026;-92
2024/01/11 04:57:09;;;;;;;65.15;31.80;;;-5.00;97.00;;;;;;5035263;28;20095;-93
2024/01/11 04:59:35;;;;;;;57.72;28.52;;;-5.00;96.90;;;;;;5033490;28;20041;-94
2024/01/11 05:02:00;;;;;;;61.35;31.80;;;-5.00;97.00;;;;;;5014950;28;20044;-91
2024/01/11 05:04:26;;;;;;;60.63;29.70;;;-5.00;96.90;;;;;;5029076;28;20117;-93
2024/01/11 05:06:52;;;;;;;53.50;28.08;;;-5.00;96.80;;;;;;5042202;28;20068;-93
2024/01/11 05:09:18;;;;;;;53.65;26.95;;;-5.00;96.80;;;;;;5032557;28;20033;-92
2024/01/11 05:11:44;;;;;;;54.20;29.77;;;-5.00;96.70;;;;;;5041848;28;20033;-90
2024/01/11 05:14:09;;;;;;;60.65;30.52;;;-4.90;97.10;;;;;;5010806;28;20049;-91
2024/01/11 05:16:35;;;;;;;86.07;41.95;;;-5.00;96.90;;;;;;5023468;28;20022;-90
2024/01/11 05:19:05;;;;;;;67.90;34.53;;;-5.00;96.90;;;;;;5012036;28;20029;-91
2024/01/11 05:21:35;;;;;;;51.15;29.88;;;-5.00;96.90;;;;;;5010233;28;20029;-92
2024/01/11 05:24:04;;;;;;;58.92;32.22;;;-5.00;97.00;;;;;;5010492;28;20037;-92
2024/01/11 05:27:07;;;;;;;57.20;28.58;;;-4.90;97.10;;;;;;5003559;28;20129;-91
2024/01/11 05:29:33;;;;;;;61.35;31.52;;;-5.00;97.10;;;;;;5005960;28;20177;-90
2024/01/11 05:32:00;;;;;;;59.67;33.13;;;-5.00;97.30;;;;;;5021144;28;20037;-91
2024/01/11 05:34:28;;;;;;;79.20;38.92;;;-5.00;97.10;;;;;;5004762;28;20508;-91
2024/01/11 05:36:56;;;;;;;67.68;30.83;;;-5.00;97.10;;;;;;5005374;28;20026;-89
2024/01/11 05:39:22;;;;;;;59.63;28.70;;;-5.00;97.10;;;;;;5005124;28;20030;-92
2024/01/11 05:45:18;;;;;;;53.05;26.92;;;-5.00;97.30;;;;;;5029197;28;20102;-90
2024/01/11 05:47:44;;;;;;;53.50;30.15;;;-5.00;97.40;;;;;;5025145;28;20025;-91
2024/01/11 05:50:11;;;;;;;56.83;33.92;;;-5.10;97.30;;;;;;5041315;28;20036;-91
2024/01/11 05:52:37;;;;;;;50.88;28.95;;;-5.00;97.30;;;;;;5024695;28;20072;-90
2024/01/11 05:55:03;;;;;;;70.70;30.73;;;-5.00;97.10;;;;;;5025061;28;20029;-92
2024/01/11 05:57:29;;;;;;;46.50;27.35;;;-5.00;97.20;;;;;;5029315;28;20048;-90
2024/01/11 05:59:56;;;;;;;51.17;25.20;;;-5.00;97.20;;;;;;5023914;28;20017;-91
2024/01/11 06:02:24;;;;;;;51.63;26.30;;;-5.10;97.40;;;;;;5040438;28;20029;-91
2024/01/11 06:04:53;;;;;;;51.90;31.67;;;-5.10;97.30;;;;;;5041112;28;20025;-91
2024/01/11 06:07:19;;;;;;;66.72;31.40;;;-5.10;97.40;;;;;;5043483;28;20022;-90
2024/01/11 06:09:48;;;;;;;57.95;30.27;;;-5.10;97.70;;;;;;5024262;28;20033;-92
2024/01/11 06:12:14;;;;;;;65.55;29.25;;;-5.10;97.70;;;;;;5040641;28;20037;-92
2024/01/11 06:14:40;;;;;;;63.40;30.17;;;-5.10;97.80;;;;;;5041510;28;20036;-92
2024/01/11 06:17:06;;;;;;;60.80;31.27;;;-5.10;97.90;;;;;;5026441;28;20057;-92
2024/01/11 06:19:32;;;;;;;60.45;28.95;;;-5.10;97.90;;;;;;5040967;28;20116;-91
2024/01/11 06:22:01;;;;;;;58.13;31.08;;;-5.10;97.90;;;;;;5013179;28;20096;-91
2024/01/11 06:24:27;;;;;;;;;;;-5.20;97.70;;;;;;5024171;28;20047;-91
2024/01/11 06:26:53;;;;;;;61.17;26.52;;;-5.20;97.60;;;;;;5040934;28;19992;-91
2024/01/11 06:29:22;;;;;;;51.00;20.92;;;-5.20;97.70;;;;;;5025012;28;20403;-91
2024/01/11 06:31:48;;;;;;;52.78;25.45;;;-5.20;97.60;;;;;;5022132;28;20038;-92
2024/01/11 06:34:14;;;;;;;46.78;27.90;;;-5.20;97.60;;;;;;5022997;28;20032;-94
2024/01/11 06:36:39;;;;;;;54.00;28.90;;;-5.20;97.90;;;;;;5017251;28;20029;-91
2024/01/11 06:39:07;;;;;;;67.63;31.10;;;-5.20;98.00;;;;;;5045939;28;20033;-96
2024/01/11 06:41:33;;;;;;;56.97;30.77;;;-5.20;97.90;;;;;;5037315;28;20738;-93
2024/01/11 06:43:59;;;;;;;55.63;27.83;;;-5.20;98.00;;;;;;5039496;28;20014;-94
2024/01/11 06:46:25;;;;;;;56.63;27.65;;;-5.20;98.00;;;;;;5054419;28;20056;-96
2024/01/11 06:48:50;;;;;;;61.65;29.15;;;-5.20;98.10;;;;;;5050463;28;20041;-93
2024/01/11 06:51:20;;;;;;;59.53;30.10;;;-5.30;98.00;;;;;;5040137;28;20099;-91
2024/01/11 06:53:46;;;;;;;51.80;26.25;;;-5.20;98.00;;;;;;5040826;28;20487;-91
2024/01/11 06:56:15;;;;;;;58.83;27.58;;;-5.20;98.70;;;;;;5040970;28;20032;-91
2024/01/11 06:58:44;;;;;;;55.97;26.90;;;-5.20;97.80;;;;;;5018459;28;20053;-92
2024/01/11 07:01:10;;;;;;;55.25;26.67;;;-5.20;97.80;;;;;;5020205;28;20089;-92
2024/01/11 07:03:37;;;;;;;50.65;28.63;;;-5.20;98.00;;;;;;5019661;28;20045;-92
2024/01/11 07:06:03;;;;;;;48.08;27.08;;;-5.20;97.90;;;;;;5040060;28;20092;-91
2024/01/11 07:08:32;;;;;;;61.85;28.42;;;-5.20;98.00;;;;;;5018420;28;20092;-90
2024/01/11 07:11:00;;;;;;;51.42;26.08;;;-5.20;98.00;;;;;;5018474;28;20050;-92
2024/01/11 07:13:26;;;;;;;58.35;30.45;;;-5.20;97.90;;;;;;5020758;28;20088;-92
2024/01/11 07:15:52;;;;;;;45.42;24.02;;;-5.20;98.10;;;;;;5020971;28;20045;-92
2024/01/11 07:18:18;;;;;;;52.03;28.73;;;-5.20;98.20;;;;;;5020422;28;20029;-92
2024/01/11 07:20:44;;;;;;;68.65;46.35;;;-5.10;98.30;;;;;;5020380;28;20022;-92
2024/01/11 07:23:09;;;;;;;58.55;29.42;;;-5.10;98.50;;;;;;5020769;28;20021;-91
2024/01/11 07:25:35;;;;;;;64.38;29.80;;;-5.10;98.60;;;;;;5039252;28;20065;-92
2024/01/11 07:28:02;;;;;;;53.25;27.05;;;-5.10;98.70;;;;;;5018964;28;20057;-93
2024/01/11 07:30:28;;;;;;;52.60;28.73;;;-5.20;98.60;;;;;;5035351;28;20021;-92
2024/01/11 07:32:53;;;;;;;56.53;22.83;;;-5.10;98.80;;;;;;5036450;28;21457;-93
2024/01/11 07:35:20;;;;;;;59.88;31.52;;;-5.20;98.90;;;;;;5040140;28;20026;-91
2024/01/11 07:37:45;;;;;;;54.35;28.45;;;-5.10;99.00;;;;;;5039250;28;20079;-91
2024/01/11 07:40:14;;;;;;;57.40;29.00;;;-5.10;99.20;;;;;;5020787;28;20025;-93
2024/01/11 07:42:40;;;;;;;;;;;-5.10;99.30;;;;;;5018882;28;20484;-91
2024/01/11 07:45:07;;;;;;;54.78;25.17;;;-5.00;99.40;;;;;;5022879;28;19905;-90
2024/01/11 07:47:33;;;;;;;63.58;30.88;;;-5.10;99.50;;;;;;5035488;28;20025;-93
2024/01/11 07:50:00;;;;;;;57.30;28.15;;;-5.00;99.60;;;;;;5025600;28;20036;-92
2024/01/11 07:52:27;;;;;;;67.50;30.63;;;-5.00;99.70;;;;;;5038725;28;20030;-92
2024/01/11 07:54:54;;;;;;;59.38;30.38;;;-5.00;99.80;;;;;;5015867;28;20033;-91
2024/01/11 07:57:19;;;;;;;70.28;31.15;;;-4.90;99.90;;;;;;5035278;28;20021;-93
2024/01/11 07:59:45;;;;;;;64.00;32.25;;;-4.90;99.80;;;;;;5037676;28;20033;-92
2024/01/11 08:02:10;;;;;;;68.78;32.70;;;-4.90;99.60;;;;;;5037313;28;20025;-90
2024/01/11 08:04:38;;;;;;;63.53;30.67;;;-4.90;99.50;;;;;;5037416;28;20112;-93
2024/01/11 08:07:05;;;;;;;73.38;34.47;;;-4.90;99.50;;;;;;5043330;28;20056;-92
2024/01/11 08:09:31;;;;;;;74.10;33.08;;;-4.90;99.20;;;;;;5043138;28;20022;-93
2024/01/11 08:11:56;;;;;;;69.50;32.78;;;-4.90;99.00;;;;;;5045259;28;20030;-91
2024/01/11 08:14:22;;;;;;;63.35;31.98;;;-4.80;98.80;;;;;;5046379;28;20020;-94
2024/01/11 08:16:48;;;;;;;67.65;29.50;;;-4.80;98.60;;;;;;5026471;28;20037;-92
2024/01/11 08:19:19;;;;;;;58.70;25.55;;;-4.80;98.10;;;;;;5043690;28;20395;-92
2024/01/11 08:21:45;;;;;;;73.30;35.38;;;-4.70;98.10;;;;;;5022808;28;20035;-93
2024/01/11 08:24:11;;;;;;;67.65;28.75;;;-4.70;97.70;;;;;;5020691;28;20042;-94
2024/01/11 08:26:37;;;;;;;58.85;31.73;;;-4.70;97.50;;;;;;5040438;28;20028;-92
2024/01/11 08:29:04;;;;;;;68.35;31.58;;;-4.70;97.00;;;;;;5024475;28;20439;-94
2024/01/11 08:31:30;;;;;;;61.47;26.95;;;-4.60;97.10;;;;;;5041520;28;20411;-93
2024/01/11 08:33:56;;;;;;;66.50;31.65;;;-4.60;96.80;;;;;;5041109;28;20029;-92
2024/01/11 08:36:22;;;;;;;61.70;31.83;;;-4.60;96.50;;;;;;5046646;28;20078;-92
2024/01/11 08:38:49;;;;;;;63.53;32.67;;;-4.50;96.40;;;;;;5029639;28;20129;-93
2024/01/11 08:41:17;;;;;;;64.88;31.35;;;-4.50;96.20;;;;;;5030578;28;20033;-93
2024/01/11 08:43:44;;;;;;;67.20;33.78;;;-4.50;96.00;;;;;;5049918;28;20030;-90
2024/01/11 08:46:10;;;;;;;64.53;32.72;;;-4.50;95.90;;;;;;5045741;28;20076;-90
2024/01/11 08:48:38;;;;;;;59.35;33.60;;;-4.40;95.90;;;;;;5037934;28;20085;-93
2024/01/11 08:51:04;;;;;;;64.53;32.28;;;-4.40;95.40;;;;;;5050205;28;20002;-91
2024/01/11 08:53:30;;;;;;;63.40;30.08;;;-4.40;95.10;;;;;;5046100;28;20037;-92
2024/01/11 08:55:56;;;;;;;62.58;32.20;;;-4.40;94.90;;;;;;5030565;28;20021;-92
2024/01/11 08:58:22;;;;;;;71.82;32.10;;;-4.30;94.60;;;;;;5036357;28;20022;-91
2024/01/11 09:00:47;;;;;;;62.92;30.60;;;-4.30;94.40;;;;;;5042994;28;20048;-91
2024/01/11 09:03:15;;;;;;;47.25;27.13;;;-4.20;94.30;;;;;;5040330;28;20018;-92
2024/01/11 09:05:41;;;;;;;63.05;29.30;;;-4.20;93.90;;;;;;5039243;28;20022;-92
2024/01/11 09:08:06;;;;;;;59.90;31.73;;;-4.20;93.50;;;;;;5046388;28;20012;-92
2024/01/11 09:10:32;;;;;;;56.22;30.02;;;-4.10;93.40;;;;;;5026631;28;20033;-92
2024/01/11 09:12:59;;;;;;;61.97;31.73;;;-4.10;93.40;;;;;;5040872;28;20131;-92
2024/01/11 09:15:24;;;;;;;60.95;30.90;;;-4.00;93.10;;;;;;5023870;28;20022;-91
2024/01/11 09:17:50;;;;;;;60.13;30.77;;;-4.00;92.90;;;;;;5043150;28;20036;-92
2024/01/11 09:20:16;;;;;;;58.65;31.65;;;-3.90;93.00;;;;;;5038885;28;20039;-92
2024/01/11 09:22:42;;;;;;;64.07;29.00;;;-3.90;92.30;;;;;;5038836;28;20043;-91
2024/01/11 09:25:11;;;;;;;53.28;29.73;;;-3.80;91.90;;;;;;5042115;28;20108;-92
2024/01/11 09:27:41;;;;;;;61.97;31.95;;;-3.70;93.00;;;;;;5046236;28;20025;-90
2024/01/11 09:30:12;;;;;;;68.22;31.77;;;-3.60;91.20;;;;;;5044883;28;20022;-90
2024/01/11 09:32:42;;;;;;;65.47;29.95;;;-3.60;90.50;;;;;;5040441;28;20038;-90
2024/01/11 09:35:36;;;;;;;69.72;32.95;;;-3.60;90.10;;;;;;5012472;28;20042;-90
2024/01/11 09:38:02;;;;;;;;;;;-3.50;89.80;;;;;;5030623;28;20048;-90
2024/01/11 09:40:28;;;;;;;57.45;27.70;;;-3.40;88.60;;;;;;5047387;28;19905;-91
2024/01/11 09:43:00;;;;;;;51.75;28.13;;;-3.40;88.50;;;;;;5028678;28;20045;-90
2024/01/11 09:45:34;;;;;;;60.85;33.30;;;-3.30;88.20;;;;;;5014320;28;20516;-91
2024/01/11 09:48:04;;;;;;;54.63;28.55;;;-3.30;88.20;;;;;;5026896;28;20087;-91
2024/01/11 09:50:35;;;;;;;64.53;29.35;;;-3.20;87.40;;;;;;5043268;28;20049;-94
2024/01/11 09:53:05;;;;;;;60.55;30.33;;;-3.10;86.90;;;;;;5042094;28;20025;-92
2024/01/11 09:55:31;;;;;;;66.13;30.27;;;-3.10;86.20;;;;;;5042786;28;20025;-94
2024/01/11 09:58:00;;;;;;;67.78;30.88;;;-3.00;85.50;;;;;;5041632;28;20056;-90
2024/01/11 10:00:33;;;;;;;62.30;32.83;;;-2.90;84.50;;;;;;5025084;28;20051;-91
2024/01/11 10:03:04;;;;;;;162.77;62.55;;;-2.80;84.20;;;;;;5044168;28;20157;-89
2024/01/11 10:05:30;;;;;;;;;;;-2.80;83.60;;;;;;5016745;28;20048;-90
2024/01/11 10:07:56;;;;;;;60.70;31.15;;;-2.70;83.40;;;;;;5023812;28;19909;-91
2024/01/11 10:10:31;;;;;;;65.03;34.72;;;-2.50;82.50;;;;;;5039434;28;20036;-92
2024/01/11 10:13:00;;;;;;;65.43;33.42;;;-2.40;82.00;;;;;;5025815;28;20089;-91
2024/01/11 10:15:29;;;;;;;67.25;31.40;;;-2.20;81.40;;;;;;5041721;28;20034;-92
2024/01/11 10:18:01;;;;;;;59.97;32.78;;;-2.00;80.70;;;;;;5022432;28;20024;-92
2024/01/11 10:20:32;;;;;;;55.67;32.92;;;-1.80;78.80;;;;;;5021837;28;20064;-91
2024/01/11 10:23:01;;;;;;;68.60;31.33;;;-1.80;77.60;;;;;;5040978;28;20116;-91
2024/01/11 10:25:30;;;;;;;69.45;37.00;;;-1.70;77.60;;;;;;5041838;28;20101;-91
2024/01/11 10:27:57;;;;;;;60.97;31.27;;;-1.50;77.60;;;;;;5022826;28;20033;-92
2024/01/11 10:30:25;;;;;;;58.00;31.50;;;-1.40;76.70;;;;;;5040328;28;20040;-93
2024/01/11 10:32:53;;;;;;;68.22;32.67;;;-1.10;75.50;;;;;;4996452;28;20041;-91
2024/01/11 10:35:19;;;;;;;64.63;29.20;;;-1.10;73.90;;;;;;5013584;28;20107;-92
2024/01/11 10:38:05;;;;;;;60.78;32.63;;;-1.00;73.10;;;;;;5039589;28;20022;-91
2024/01/11 10:40:34;;;;;;;63.22;33.85;;;-0.90;72.20;;;;;;5021471;28;20021;-90
2024/01/11 10:43:02;;;;;;;82.13;36.72;;;-0.90;71.80;;;;;;5022699;28;20113;-92
2024/01/11 10:45:38;;;;;;;83.35;38.17;;;-0.70;72.10;;;;;;5018095;28;20044;-91
2024/01/11 10:48:07;;;;;;;58.28;28.02;;;-0.70;72.20;;;;;;5033884;28;20600;-90
2024/01/11 10:50:41;;;;;;;70.50;34.28;;;-0.50;71.30;;;;;;5030103;28;20098;-93
2024/01/11 10:53:47;;;;;;;79.32;37.72;;;-0.30;70.30;;;;;;5033960;28;20040;-94
2024/01/11 10:56:14;;;;;;;56.17;34.25;;;-0.20;70.60;;;;;;5029180;28;20056;-90
2024/01/11 10:58:44;;;;;;;63.47;32.55;;;-0.10;68.90;;;;;;5011738;28;20021;-91
2024/01/11 11:01:13;;;;;;;67.82;35.50;;;-0.10;69.10;;;;;;5013946;28;20042;-90
2024/01/11 11:03:42;;;;;;;59.97;29.80;;;-0.20;69.40;;;;;;5016935;28;20068;-91
2024/01/11 11:06:10;;;;;;;53.85;29.40;;;-0.20;69.30;;;;;;5018154;28;20036;-91
2024/01/11 11:08:38;;;;;;;66.30;33.13;;;-0.20;69.00;;;;;;5034064;28;20013;-92
2024/01/11 11:11:07;;;;;;;67.97;35.85;;;-0.10;68.50;;;;;;5030199;28;20178;-92
2024/01/11 11:13:36;;;;;;;62.25;35.60;;;0.10;68.20;;;;;;5031319;28;20022;-90
2024/01/11 11:16:05;;;;;;;66.40;35.05;;;0.30;67.30;;;;;;5029445;28;20056;-92
2024/01/11 11:18:34;;;;;;;69.07;35.25;;;0.30;66.70;;;;;;5013359;28;20105;-92
2024/01/11 11:21:00;;;;;;;84.47;46.63;;;0.50;66.50;;;;;;5025491;28;20018;-92
2024/01/11 11:23:26;;;;;;;82.10;40.58;;;0.70;64.60;;;;;;5011427;28;20033;-92
2024/01/11 11:25:58;;;;;;;81.60;45.13;;;0.60;65.30;;;;;;5008452;28;20013;-90
2024/01/11 11:28:24;;;;;;;62.85;35.95;;;0.70;65.00;;;;;;5030451;28;20045;-91
2024/01/11 11:30:52;;;;;;;61.35;31.60;;;0.90;64.40;;;;;;5025919;28;21101;-90
2024/01/11 11:33:18;;;;;;;;;;;0.90;63.90;;;;;;5013711;28;20492;-93
2024/01/11 11:35:46;;;;;;;60.15;32.15;;;1.00;63.70;;;;;;5041250;28;19905;-96
2024/01/11 11:38:22;;;;;;;69.80;34.13;;;1.40;63.60;;;;;;5028058;28;20093;-96
2024/01/11 11:40:51;;;;;;;70.95;34.22;;;1.50;61.50;;;;;;5032515;28;20042;-92
2024/01/11 11:43:17;;;;;;;74.63;34.78;;;1.60;61.10;;;;;;5030212;28;20029;-91
2024/01/11 11:45:45;;;;;;;66.10;33.08;;;1.50;60.70;;;;;;5028232;28;20130;-91
2024/01/11 11:48:34;;;;;;;64.05;34.20;;;1.80;60.10;;;;;;5021712;28;20097;-89
2024/01/11 11:51:09;;;;;;;66.38;35.17;;;1.90;58.80;;;;;;5024385;28;20036;-90
2024/01/11 11:53:36;;;;;;;65.45;35.65;;;1.90;59.70;;;;;;5006087;28;20025;-92
2024/01/11 11:56:16;;;;;;;68.93;35.75;;;2.20;58.60;;;;;;5005491;28;20014;-89
2024/01/11 11:58:58;;;;;;;67.18;34.08;;;2.10;58.60;;;;;;5006305;28;20085;-91
2024/01/11 12:01:26;;;;;;;66.13;33.88;;;2.30;58.50;;;;;;5007021;28;20033;-91
2024/01/11 12:03:54;;;;;;;;;;;2.30;57.60;;;;;;5026737;28;20041;-92
2024/01/11 12:06:24;;;;;;;72.80;35.55;;;2.40;58.50;;;;;;5024479;28;19917;-90
2024/01/11 12:08:52;;;;;;;73.63;32.30;;;2.30;57.80;;;;;;5024892;28;20339;-92
2024/01/11 12:11:20;;;;;;;92.18;44.70;;;2.20;57.60;;;;;;5023289;28;20041;-93
2024/01/11 12:13:50;;;;;;;104.10;48.92;;;2.70;56.70;;;;;;5010354;28;20146;-90
2024/01/11 12:16:15;;;;;;;71.40;37.50;;;3.00;55.40;;;;;;5026649;28;20032;-92
2024/01/11 12:18:41;;;;;;;80.65;40.15;;;3.10;54.50;;;;;;5031605;28;20029;-91
2024/01/11 12:21:08;;;;;;;73.30;36.53;;;2.90;55.00;;;;;;5012111;28;20025;-89
2024/01/11 12:23:35;;;;;;;72.40;35.90;;;3.00;55.00;;;;;;5009017;28;20091;-90
2024/01/11 12:26:07;;;;;;;78.47;42.10;;;3.00;55.00;;;;;;5027329;28;20033;-91
2024/01/11 12:28:33;;;;;;;75.72;39.10;;;3.30;54.30;;;;;;5003509;28;20053;-93
2024/01/11 12:31:00;;;;;;;68.90;35.53;;;3.70;53.10;;;;;;5006451;28;20416;-92
2024/01/11 12:33:28;;;;;;;61.28;35.85;;;3.40;53.00;;;;;;5032507;28;20029;-91
2024/01/11 12:35:54;;;;;;;74.80;35.92;;;3.60;53.80;;;;;;5034702;28;20029;-93
2024/01/11 12:38:19;;;;;;;70.28;36.72;;;3.80;51.30;;;;;;5031329;28;20065;-90